createdAt,value
2023-02-25T00:00:30.659Z,97991.47
2023-02-25T00:02:58.603Z,97994.97
2023-02-25T00:05:26.092Z,97992.78
2023-02-25T00:07:53.444Z,97993.13
2023-02-25T00:10:21.499Z,97983.75
2023-02-25T00:12:47.912Z,97987.03
2023-02-25T00:15:15.433Z,97988.47
2023-02-25T00:17:41.984Z,97983.19
2023-02-25T00:20:09.461Z,97971.81
2023-02-25T00:22:36.582Z,97957.13
2023-02-25T00:25:03.539Z,97956.19
2023-02-25T00:27:30.347Z,97935.72
2023-02-25T00:29:56.817Z,97911.00
2023-02-25T00:32:23.798Z,97895.66
2023-02-25T00:34:50.532Z,97894.84
2023-02-25T00:37:17.012Z,97875.00
2023-02-25T00:39:43.555Z,97880.34
2023-02-25T00:42:16.413Z,97886.25
2023-02-25T00:44:48.482Z,97888.09
2023-02-25T00:47:17.535Z,97887.94
2023-02-25T00:49:45.584Z,97902.41
2023-02-25T00:52:11.977Z,97905.75
2023-02-25T00:54:38.501Z,97905.22
2023-02-25T00:57:06.294Z,97891.53
2023-02-25T00:59:32.946Z,97892.59
2023-02-25T01:01:59.708Z,97895.59
2023-02-25T01:04:26.425Z,97905.47
2023-02-25T01:06:53.147Z,97902.19
2023-02-25T01:09:19.953Z,97907.41
2023-02-25T01:11:47.807Z,97896.47
2023-02-25T01:14:19.814Z,97903.78
2023-02-25T01:16:50.748Z,97906.53
2023-02-25T01:19:20.472Z,97913.63
2023-02-25T01:21:49.932Z,97919.28
2023-02-25T01:24:19.879Z,97904.75
2023-02-25T01:26:47.827Z,97896.19
2023-02-25T01:29:18.103Z,97912.41
2023-02-25T01:31:45.668Z,97906.59
2023-02-25T01:34:17.601Z,97909.41
2023-02-25T01:36:45.274Z,97907.13
2023-02-25T01:39:14.219Z,97914.97
2023-02-25T01:41:40.750Z,97923.19
2023-02-25T01:44:19.218Z,97931.94
2023-02-25T01:46:49.550Z,97932.13
2023-02-25T01:49:30.200Z,97931.94
2023-02-25T01:52:13.837Z,97937.47
2023-02-25T01:54:42.027Z,97996.84
2023-02-25T01:57:11.006Z,98076.03
2023-02-25T01:59:41.160Z,98134.53
2023-02-25T02:02:09.870Z,98154.50
2023-02-25T02:04:37.877Z,98137.50
2023-02-25T02:07:04.365Z,98116.72
2023-02-25T02:09:32.214Z,98115.06
2023-02-25T02:12:05.936Z,98099.41
2023-02-25T02:14:36.892Z,98081.06
2023-02-25T02:17:08.665Z,98073.34
2023-02-25T02:20:04.659Z,98076.94
2023-02-25T02:22:37.577Z,98097.75
2023-02-25T02:25:45.980Z,98098.94
2023-02-25T02:28:50.416Z,98096.59
2023-02-25T02:31:26.244Z,98101.22
2023-02-25T02:34:08.368Z,98116.09
2023-02-25T02:37:03.817Z,98110.31
2023-02-25T02:39:53.143Z,98128.63
2023-02-25T02:42:48.378Z,98102.22
2023-02-25T02:45:24.006Z,98102.88
2023-02-25T02:47:57.471Z,98084.84
2023-02-25T02:50:30.451Z,98070.97
2023-02-25T02:53:02.181Z,98064.53
2023-02-25T02:55:36.169Z,98077.78
2023-02-25T02:58:35.613Z,98062.44
2023-02-25T03:01:07.933Z,98060.97
2023-02-25T03:03:40.472Z,98071.53
2023-02-25T03:06:21.269Z,98055.69
2023-02-25T03:08:53.817Z,98037.03
2023-02-25T03:11:20.271Z,98025.66
2023-02-25T03:13:46.767Z,98028.28
2023-02-25T03:16:21.473Z,98027.28
2023-02-25T03:18:57.047Z,98017.38
2023-02-25T03:21:29.202Z,98019.00
2023-02-25T03:23:56.194Z,98015.38
2023-02-25T03:26:30.505Z,98024.28
2023-02-25T03:28:58.533Z,98045.78
2023-02-25T03:31:32.575Z,98041.00
2023-02-25T03:34:20.181Z,98032.09
2023-02-25T03:36:54.304Z,98031.44
2023-02-25T03:39:26.733Z,98041.84
2023-02-25T03:41:56.278Z,98057.03
2023-02-25T03:44:28.338Z,98057.84
2023-02-25T03:46:56.414Z,98064.97
2023-02-25T03:49:31.049Z,98074.88
2023-02-25T03:52:00.355Z,98092.53
2023-02-25T03:54:27.119Z,98094.34
2023-02-25T03:56:56.728Z,98105.94
2023-02-25T03:59:24.041Z,98109.53
2023-02-25T04:01:52.135Z,98123.56
2023-02-25T04:04:18.906Z,98101.97
2023-02-25T04:06:45.197Z,98099.66
2023-02-25T04:09:11.761Z,98106.28
2023-02-25T04:11:38.219Z,98086.44
2023-02-25T04:14:04.710Z,98080.69
2023-02-25T04:16:31.411Z,98082.03
2023-02-25T04:18:57.834Z,98099.03
2023-02-25T04:21:35.058Z,98123.63
2023-02-25T04:24:02.821Z,98103.63
2023-02-25T04:26:30.334Z,98081.97
2023-02-25T04:28:56.824Z,98072.44
2023-02-25T04:31:23.485Z,98068.16
2023-02-25T04:33:50.425Z,98058.41
2023-02-25T04:36:25.497Z,98027.53
2023-02-25T04:38:52.237Z,98011.69
2023-02-25T04:41:18.917Z,97995.50
2023-02-25T04:43:45.632Z,97987.75
2023-02-25T04:46:13.538Z,97988.91
2023-02-25T04:48:39.993Z,98010.34
2023-02-25T04:51:08.336Z,97982.47
2023-02-25T04:53:36.248Z,97976.19
2023-02-25T04:56:07.875Z,97989.53
2023-02-25T04:58:35.280Z,97988.72
2023-02-25T05:01:05.303Z,97973.22
2023-02-25T05:03:33.462Z,97932.19
2023-02-25T05:06:00.562Z,97918.13
2023-02-25T05:08:27.581Z,97921.78
2023-02-25T05:10:54.003Z,97921.59
2023-02-25T05:13:21.035Z,97913.69
2023-02-25T05:15:48.278Z,97918.13
2023-02-25T05:18:15.006Z,97905.94
2023-02-25T05:20:43.371Z,97909.72
2023-02-25T05:23:10.142Z,97906.94
2023-02-25T05:25:40.230Z,97898.34
2023-02-25T05:28:11.479Z,97887.78
2023-02-25T05:30:39.377Z,97887.13
2023-02-25T05:33:07.239Z,97888.78
2023-02-25T05:35:33.788Z,97888.78
2023-02-25T05:38:00.758Z,97895.06
2023-02-25T05:40:27.507Z,97893.41
2023-02-25T05:42:54.120Z,97899.50
2023-02-25T05:45:21.739Z,97898.69
2023-02-25T05:47:48.401Z,97905.97
2023-02-25T05:50:14.939Z,97903.16
2023-02-25T05:52:41.733Z,97895.06
2023-02-25T05:55:08.670Z,97893.41
2023-02-25T05:57:35.215Z,97908.25
2023-02-25T06:00:01.912Z,97910.06
2023-02-25T06:02:29.678Z,97902.97
2023-02-25T06:04:56.124Z,97900.53
2023-02-25T06:07:22.554Z,97911.25
2023-02-25T06:09:49.212Z,97918.00
2023-02-25T06:12:15.599Z,97910.06
2023-02-25T06:14:42.228Z,97901.34
2023-02-25T06:17:08.779Z,97895.41
2023-02-25T06:19:35.269Z,97882.84
2023-02-25T06:22:01.953Z,97876.91
2023-02-25T06:24:28.376Z,97866.34
2023-02-25T06:26:54.753Z,97861.06
2023-02-25T06:29:21.148Z,97862.56
2023-02-25T06:31:48.377Z,97850.00
2023-02-25T06:34:14.853Z,97866.66
2023-02-25T06:36:41.537Z,97850.81
2023-02-25T06:39:07.928Z,97851.28
2023-02-25T06:41:34.354Z,97857.38
2023-02-25T06:44:01.021Z,97857.56
2023-02-25T06:46:27.789Z,97859.88
2023-02-25T06:48:54.960Z,97855.06
2023-02-25T06:51:22.270Z,97863.44
2023-02-25T06:53:51.225Z,97856.97
2023-02-25T06:56:17.712Z,97852.16
2023-02-25T06:58:44.237Z,97854.28
2023-02-25T07:01:14.710Z,97859.03
2023-02-25T07:03:42.488Z,97875.69
2023-02-25T07:06:09.227Z,97869.59
2023-02-25T07:08:35.879Z,97869.44
2023-02-25T07:11:14.594Z,97883.25
2023-02-25T07:13:41.528Z,97895.31
2023-02-25T07:16:07.893Z,97896.59
2023-02-25T07:18:35.316Z,97890.72
2023-02-25T07:21:01.944Z,97873.94
2023-02-25T07:23:28.546Z,97873.50
2023-02-25T07:25:55.258Z,97868.91
2023-02-25T07:28:22.097Z,97877.75
2023-02-25T07:30:50.807Z,97868.44
2023-02-25T07:33:19.550Z,97868.88
2023-02-25T07:35:45.984Z,97874.47
2023-02-25T07:38:12.396Z,97869.75
2023-02-25T07:40:39.976Z,97872.03
2023-02-25T07:43:07.309Z,97869.78
2023-02-25T07:45:33.772Z,97868.63
2023-02-25T07:48:00.279Z,97864.25
2023-02-25T07:50:28.539Z,97868.72
2023-02-25T07:52:55.047Z,97861.75
2023-02-25T07:55:21.570Z,97863.69
2023-02-25T07:57:48.005Z,97843.44
2023-02-25T08:00:15.142Z,97849.47
2023-02-25T08:02:41.890Z,97851.91
2023-02-25T08:05:08.996Z,97834.91
2023-02-25T08:07:35.648Z,97832.78
2023-02-25T08:10:02.211Z,97829.03
2023-02-25T08:12:29.010Z,97826.56
2023-02-25T08:14:55.378Z,97818.47
2023-02-25T08:17:21.781Z,97828.22
2023-02-25T08:19:48.309Z,97822.13
2023-02-25T08:22:14.739Z,97832.53
2023-02-25T08:24:41.757Z,97827.69
2023-02-25T08:27:08.678Z,97828.97
2023-02-25T08:29:38.546Z,97842.34
2023-02-25T08:32:06.392Z,97842.34
2023-02-25T08:34:34.175Z,97846.56
2023-02-25T08:37:01.326Z,97847.72
2023-02-25T08:39:27.817Z,97834.53
2023-02-25T08:41:54.286Z,97832.22
2023-02-25T08:44:20.782Z,97834.50
2023-02-25T08:46:47.590Z,97829.41
2023-02-25T08:49:14.133Z,97837.03
2023-02-25T08:51:40.625Z,97827.75
2023-02-25T08:54:12.089Z,97825.06
2023-02-25T08:56:38.750Z,97820.25
2023-02-25T08:59:05.670Z,97819.25
2023-02-25T09:01:32.177Z,97824.31
2023-02-25T09:03:58.732Z,97816.16
2023-02-25T09:06:28.276Z,97825.13
2023-02-25T09:08:56.233Z,97834.53
2023-02-25T09:11:25.018Z,97829.28
2023-02-25T09:13:54.620Z,97826.69
2023-02-25T09:16:21.230Z,97824.13
2023-02-25T09:18:49.721Z,97823.06
2023-02-25T09:21:16.127Z,97823.16
2023-02-25T09:23:43.066Z,97819.03
2023-02-25T09:26:09.521Z,97823.44
2023-02-25T09:28:36.322Z,97816.78
2023-02-25T09:31:03.015Z,97823.84
2023-02-25T09:33:31.739Z,97822.03
2023-02-25T09:36:10.659Z,97823.66
2023-02-25T09:38:38.914Z,97820.19
2023-02-25T09:41:22.693Z,97814.97
2023-02-25T09:43:54.566Z,97817.78
2023-02-25T09:46:21.313Z,97808.09
2023-02-25T09:48:58.646Z,97800.38
2023-02-25T09:51:36.130Z,97808.06
2023-02-25T09:54:09.197Z,97803.94
2023-02-25T09:56:37.211Z,97808.13
2023-02-25T09:59:10.543Z,97807.56
2023-02-25T10:01:44.519Z,97806.19
2023-02-25T10:04:24.596Z,97804.09
2023-02-25T10:06:52.876Z,97814.75
2023-02-25T10:10:04.320Z,97809.75
2023-02-25T10:12:53.879Z,97807.81
2023-02-25T10:15:32.658Z,97795.69
2023-02-25T10:18:37.772Z,97801.50
2023-02-25T10:21:28.773Z,97797.75
2023-02-25T10:23:55.048Z,97798.78
2023-02-25T10:26:29.531Z,97790.59
2023-02-25T10:29:11.508Z,97796.53
2023-02-25T10:31:41.170Z,97798.16
2023-02-25T10:34:22.846Z,97797.03
2023-02-25T10:36:58.618Z,97805.19
2023-02-25T10:39:28.546Z,97813.06
2023-02-25T10:41:54.991Z,97805.34
2023-02-25T10:44:21.664Z,97805.88
2023-02-25T10:46:56.246Z,97797.34
2023-02-25T10:49:29.267Z,97797.59
2023-02-25T10:52:06.726Z,97800.06
2023-02-25T10:54:36.319Z,97794.41
2023-02-25T10:57:12.789Z,97785.38
2023-02-25T10:59:41.727Z,97782.09
2023-02-25T11:02:29.550Z,97778.81
2023-02-25T11:04:56.455Z,97774.78
2023-02-25T11:07:41.839Z,97782.34
2023-02-25T11:10:14.474Z,97777.28
2023-02-25T11:12:47.116Z,97779.00
2023-02-25T11:15:43.049Z,97783.31
2023-02-25T11:18:22.169Z,97784.50
2023-02-25T11:20:57.954Z,97787.75
2023-02-25T11:23:30.639Z,97779.25
2023-02-25T11:25:57.394Z,97783.09
2023-02-25T11:28:33.034Z,97789.22
2023-02-25T11:31:30.138Z,97770.91
2023-02-25T11:33:59.686Z,97773.22
2023-02-25T11:36:32.574Z,97773.06
2023-02-25T11:39:20.635Z,97770.16
2023-02-25T11:41:50.232Z,97772.19
2023-02-25T11:44:48.425Z,97780.94
2023-02-25T11:47:31.074Z,97770.06
2023-02-25T11:50:26.708Z,97770.94
2023-02-25T11:53:14.635Z,97764.25
2023-02-25T11:55:43.992Z,97772.16
2023-02-25T11:58:55.066Z,97775.97
2023-02-25T12:01:33.791Z,97768.97
2023-02-25T12:04:27.159Z,97769.94
2023-02-25T12:07:02.349Z,97774.53
2023-02-25T12:09:54.026Z,97765.63
2023-02-25T12:12:54.708Z,97773.31
2023-02-25T12:16:05.010Z,97763.00
2023-02-25T12:19:09.249Z,97764.56
2023-02-25T12:21:57.883Z,97752.09
2023-02-25T12:24:33.791Z,97746.66
2023-02-25T12:27:31.868Z,97758.13
2023-02-25T12:30:36.862Z,97753.22
2023-02-25T12:33:15.145Z,97751.75
2023-02-25T12:36:00.468Z,97761.28
2023-02-25T12:38:57.331Z,97766.63
2023-02-25T12:42:11.991Z,97764.31
2023-02-25T12:45:05.522Z,97763.66
2023-02-25T12:48:05.064Z,97763.06
2023-02-25T12:50:52.649Z,97758.81
2023-02-25T12:53:37.094Z,97757.09
2023-02-25T12:56:08.828Z,97762.16
2023-02-25T12:58:58.665Z,97755.34
2023-02-25T13:01:40.067Z,97755.19
2023-02-25T13:05:00.974Z,97750.09
2023-02-25T13:07:45.474Z,97756.19
2023-02-25T13:10:30.722Z,97751.81
2023-02-25T13:13:15.863Z,97749.28
2023-02-25T13:16:22.594Z,97756.97
2023-02-25T13:19:03.392Z,97770.06
2023-02-25T13:21:33.263Z,97780.63
2023-02-25T13:24:20.680Z,97799.59
2023-02-25T13:26:55.645Z,97797.81
2023-02-25T13:29:53.530Z,97791.22
2023-02-25T13:32:23.160Z,97789.00
2023-02-25T13:35:16.509Z,97786.81
2023-02-25T13:38:14.515Z,97788.06
2023-02-25T13:41:09.103Z,97784.97
2023-02-25T13:43:44.780Z,97791.19
2023-02-25T13:46:47.625Z,97788.06
2023-02-25T13:49:30.263Z,97789.44
2023-02-25T13:52:10.992Z,97789.81
2023-02-25T13:55:04.559Z,97784.19
2023-02-25T13:57:39.696Z,97792.22
2023-02-25T14:00:28.190Z,97784.09
2023-02-25T14:03:14.485Z,97784.53
2023-02-25T14:06:12.704Z,97775.50
2023-02-25T14:09:09.488Z,97774.50
2023-02-25T14:12:12.142Z,97760.28
2023-02-25T14:14:48.673Z,97767.72
2023-02-25T14:17:34.402Z,97764.06
2023-02-25T14:20:22.844Z,97756.25
2023-02-25T14:26:12.303Z,97753.84
2023-02-25T14:29:18.981Z,97752.31
2023-02-25T14:32:19.713Z,97753.06
2023-02-25T14:34:59.701Z,97751.06
2023-02-25T14:37:55.287Z,97747.91
2023-02-25T14:40:47.289Z,97754.22
2023-02-25T14:43:33.527Z,97745.88
2023-02-25T14:46:25.752Z,97745.13
2023-02-25T14:48:55.015Z,97745.66
2023-02-25T14:51:41.988Z,97741.72
2023-02-25T14:54:34.952Z,97741.09
2023-02-25T14:57:27.966Z,97745.59
2023-02-25T15:00:03.692Z,97740.19
2023-02-25T15:02:42.032Z,97749.94
2023-02-25T15:05:11.572Z,97747.72
2023-02-25T15:08:08.027Z,97746.22
2023-02-25T15:10:41.748Z,97756.94
2023-02-25T15:13:08.764Z,97755.97
2023-02-25T15:16:01.210Z,97757.38
2023-02-25T15:18:59.269Z,97752.97
2023-02-25T15:21:31.911Z,97761.78
2023-02-25T15:23:59.991Z,97753.59
2023-02-25T15:26:40.504Z,97765.56
2023-02-25T15:29:28.303Z,97772.25
2023-02-25T15:32:24.455Z,97772.31
2023-02-25T15:35:07.150Z,97773.22
2023-02-25T15:37:57.427Z,97773.59
2023-02-25T15:40:33.056Z,97771.88
2023-02-25T15:43:38.662Z,97775.53
2023-02-25T15:46:11.275Z,97778.28
2023-02-25T15:48:39.380Z,97774.09
2023-02-25T15:51:10.960Z,97774.91
2023-02-25T15:53:41.470Z,97784.22
2023-02-25T15:56:08.007Z,97781.59
2023-02-25T15:58:35.084Z,97781.53
2023-02-25T16:01:07.754Z,97781.72
2023-02-25T16:03:34.648Z,97785.59
2023-02-25T16:06:08.114Z,97786.22
2023-02-25T16:08:59.587Z,97786.22
2023-02-25T16:11:42.422Z,97781.50
2023-02-25T16:14:18.179Z,97787.59
2023-02-25T16:16:52.458Z,97795.47
2023-02-25T16:19:23.841Z,97831.72
2023-02-25T16:22:09.101Z,97895.06
2023-02-25T16:24:36.595Z,97969.63
2023-02-25T16:27:06.578Z,98024.78
2023-02-25T16:29:59.348Z,98073.31
2023-02-25T16:33:00.006Z,98105.00
2023-02-25T16:35:33.987Z,98140.50
2023-02-25T16:38:17.666Z,98184.25
2023-02-25T16:40:46.234Z,98203.69
2023-02-25T16:43:20.764Z,98226.44
2023-02-25T16:45:59.227Z,98212.44
2023-02-25T16:48:40.551Z,98229.56
2023-02-25T16:51:12.818Z,98234.69
2023-02-25T16:53:45.785Z,98234.69
2023-02-25T16:56:21.808Z,98242.97
2023-02-25T16:59:15.590Z,98245.59
2023-02-25T17:01:55.438Z,98228.94
2023-02-25T17:04:27.495Z,98213.09
2023-02-25T17:07:12.242Z,98224.81
2023-02-25T17:09:51.005Z,98237.69
2023-02-25T17:12:22.397Z,98230.59
2023-02-25T17:14:51.934Z,98235.19
2023-02-25T17:17:24.583Z,98235.53
2023-02-25T17:19:51.908Z,98247.91
2023-02-25T17:22:22.501Z,98245.59
2023-02-25T17:24:52.054Z,98250.03
2023-02-25T17:27:20.355Z,98247.25
2023-02-25T17:29:47.165Z,98238.34
2023-02-25T17:32:25.209Z,98246.25
2023-02-25T17:34:54.803Z,98240.31
2023-02-25T17:37:23.316Z,98232.72
2023-02-25T17:39:52.620Z,98215.06
2023-02-25T17:42:39.515Z,98218.88
2023-02-25T17:45:26.988Z,98225.97
2023-02-25T17:47:53.510Z,98237.16
2023-02-25T17:50:33.517Z,98254.34
2023-02-25T17:53:00.256Z,98242.78
2023-02-25T17:55:32.079Z,98252.84
2023-02-25T17:58:02.820Z,98347.94
2023-02-25T18:00:32.884Z,98415.06
2023-02-25T18:03:24.353Z,98445.91
2023-02-25T18:05:55.925Z,98469.06
2023-02-25T18:08:28.264Z,98461.50
2023-02-25T18:11:04.484Z,98459.16
2023-02-25T18:13:41.411Z,98451.13
2023-02-25T18:16:25.076Z,98447.38
2023-02-25T18:18:54.056Z,98434.34
2023-02-25T18:21:20.524Z,98436.44
2023-02-25T18:23:49.426Z,98439.94
2023-02-25T18:26:23.457Z,98448.25
2023-02-25T18:28:51.269Z,98441.16
2023-02-25T18:31:18.132Z,98437.88
2023-02-25T18:33:45.662Z,98439.69
2023-02-25T18:36:21.993Z,98433.47
2023-02-25T18:38:49.286Z,98425.31
2023-02-25T18:41:16.038Z,98427.38
2023-02-25T18:43:44.849Z,98434.41
2023-02-25T18:46:11.948Z,98440.50
2023-02-25T18:48:38.827Z,98434.97
2023-02-25T18:51:10.405Z,98452.56
2023-02-25T18:53:37.564Z,98461.44
2023-02-25T18:56:04.347Z,98460.31
2023-02-25T18:58:30.896Z,98464.06
2023-02-25T19:01:00.818Z,98469.84
2023-02-25T19:03:35.662Z,98478.72
2023-02-25T19:06:02.006Z,98475.28
2023-02-25T19:08:29.770Z,98482.03
2023-02-25T19:10:56.422Z,98485.22
2023-02-25T19:13:33.278Z,98476.22
2023-02-25T19:15:59.745Z,98481.19
2023-02-25T19:18:26.637Z,98479.66
2023-02-25T19:20:53.554Z,98491.97
2023-02-25T19:23:21.310Z,98497.78
2023-02-25T19:25:53.455Z,98490.56
2023-02-25T19:28:21.293Z,98497.09
2023-02-25T19:30:47.837Z,98498.38
2023-02-25T19:33:14.517Z,98494.59
2023-02-25T19:35:43.558Z,98484.47
2023-02-25T19:38:19.040Z,98478.53
2023-02-25T19:40:47.339Z,98472.97
2023-02-25T19:43:18.211Z,98464.84
2023-02-25T19:45:47.742Z,98454.19
2023-02-25T19:48:14.219Z,98453.50
2023-02-25T19:50:41.839Z,98443.66
2023-02-25T19:53:09.493Z,98441.34
2023-02-25T19:55:36.386Z,98441.50
2023-02-25T19:58:02.890Z,98445.38
2023-02-25T20:00:31.644Z,98450.09
2023-02-25T20:02:58.368Z,98463.91
2023-02-25T20:05:26.086Z,98459.63
2023-02-25T20:07:52.618Z,98460.72
2023-02-25T20:10:19.502Z,98469.06
2023-02-25T20:12:47.296Z,98464.75
2023-02-25T20:15:15.710Z,98470.03
2023-02-25T20:17:43.580Z,98483.34
2023-02-25T20:20:18.548Z,98487.34
2023-02-25T20:22:45.334Z,98498.97
2023-02-25T20:25:12.726Z,98507.97
2023-02-25T20:27:39.932Z,98511.97
2023-02-25T20:30:08.815Z,98529.69
2023-02-25T20:32:37.147Z,98537.00
2023-02-25T20:35:03.947Z,98548.06
2023-02-25T20:37:34.378Z,98534.09
2023-02-25T20:40:01.303Z,98546.97
2023-02-25T20:42:31.215Z,98541.16
2023-02-25T20:44:59.574Z,98540.75
2023-02-25T20:47:29.677Z,98536.59
2023-02-25T20:49:57.552Z,98542.16
2023-02-25T20:52:24.886Z,98548.63
2023-02-25T20:54:53.284Z,98546.41
2023-02-25T20:57:22.616Z,98550.97
2023-02-25T20:59:50.240Z,98552.38
2023-02-25T21:02:17.346Z,98562.03
2023-02-25T21:04:44.560Z,98563.00
2023-02-25T21:07:11.395Z,98565.78
2023-02-25T21:09:37.903Z,98576.03
2023-02-25T21:12:05.232Z,98573.66
2023-02-25T21:14:31.731Z,98573.69
2023-02-25T21:16:58.759Z,98600.25
2023-02-25T21:19:26.540Z,98621.84
2023-02-25T21:21:53.655Z,98630.94
2023-02-25T21:24:28.359Z,98637.88
2023-02-25T21:26:54.917Z,98641.34
2023-02-25T21:29:21.496Z,98640.50
2023-02-25T21:31:48.236Z,98647.41
2023-02-25T21:34:14.885Z,98649.22
2023-02-25T21:36:42.137Z,98647.97
2023-02-25T21:39:09.625Z,98656.28
2023-02-25T21:41:43.202Z,98637.06
2023-02-25T21:44:10.927Z,98635.94
2023-02-25T21:46:37.661Z,98640.91
2023-02-25T21:49:04.761Z,98635.81
2023-02-25T21:51:31.358Z,98647.16
2023-02-25T21:54:00.209Z,98639.13
2023-02-25T21:56:28.111Z,98646.06
2023-02-25T21:58:56.447Z,98639.38
2023-02-25T22:01:26.252Z,98648.13
2023-02-25T22:03:52.878Z,98644.53
2023-02-25T22:06:20.790Z,98624.31
2023-02-25T22:08:47.177Z,98616.44
2023-02-25T22:11:22.093Z,98605.38
2023-02-25T22:13:48.742Z,98610.06
2023-02-25T22:16:15.610Z,98600.13
2023-02-25T22:18:42.933Z,98599.25
2023-02-25T22:21:13.420Z,98588.47
2023-02-25T22:23:42.446Z,98579.34
2023-02-25T22:26:13.371Z,98565.78
2023-02-25T22:28:41.957Z,98516.56
2023-02-25T22:31:34.678Z,98492.38
2023-02-25T22:34:03.047Z,98456.06
2023-02-25T22:36:29.465Z,98463.22
2023-02-25T22:38:56.172Z,98433.09
2023-02-25T22:41:28.495Z,98430.38
2023-02-25T22:43:55.713Z,98444.16
2023-02-25T22:46:25.944Z,98429.38
2023-02-25T22:48:53.221Z,98418.47
2023-02-25T22:51:24.300Z,98429.66
2023-02-25T22:53:51.128Z,98442.22
2023-02-25T22:56:18.112Z,98420.13
2023-02-25T22:58:44.556Z,98419.44
2023-02-25T23:01:13.937Z,98429.66
2023-02-25T23:03:42.116Z,98415.00
2023-02-25T23:06:09.063Z,98434.75
2023-02-25T23:08:36.071Z,98435.03
2023-02-25T23:11:28.792Z,98429.94
2023-02-25T23:13:57.570Z,98432.28
2023-02-25T23:16:30.485Z,98435.34
2023-02-25T23:19:01.783Z,98435.72
2023-02-25T23:21:31.321Z,98445.84
2023-02-25T23:23:59.630Z,98444.16
2023-02-25T23:26:32.042Z,98440.00
2023-02-25T23:29:02.522Z,98436.00
2023-02-25T23:31:32.016Z,98436.00
2023-02-25T23:34:01.508Z,98444.03
2023-02-25T23:36:28.187Z,98431.84
2023-02-25T23:38:56.062Z,98420.97
2023-02-25T23:41:23.016Z,98427.16
2023-02-25T23:43:56.939Z,98414.03
2023-02-25T23:46:26.436Z,98423.03
2023-02-25T23:49:00.609Z,98423.59
2023-02-25T23:51:28.382Z,98425.66
2023-02-25T23:54:01.138Z,98446.94
2023-02-25T23:56:29.505Z,98456.84
2023-02-25T23:58:56.486Z,98452.56
